Flight Track Log - Related Links

Times and Time Zones

All times are in EDT time to prevent confusion due to time zone crossing. See the ARG1285 flight status page for this flight to view local times or setup timezone preferences in your user account.

Time Position Orientation Groundspeed Altitude Reporting Facility
EDT Latitude Longitude Course Direction KTS MPH feet Rate Location/Type
Sun 01:53:48 PM -33.7650 -70.7840 177° South 365 420 12,600  Level FlightAware ADS-B
Sun 01:54:31 PM -33.8230 -70.7730 171° South 381 438 14,300 3,000 Climbing FlightAware ADS-B
Sun 01:54:52 PM -33.8640 -70.7350 142° Southeast 390 449 15,800 3,529 Climbing FlightAware ADS-B
Sun 01:55:22 PM -33.8970 -70.6820 127° Southeast 400 460 17,300 2,630 Climbing FlightAware ADS-B
Sun 01:56:05 PM -33.9320 -70.6110 121° Southeast 414 476 19,000 2,385 Climbing FlightAware ADS-B
Sun 01:56:40 PM -33.9660 -70.5450 122° Southeast 430 495 20,400 2,240 Climbing FlightAware ADS-B
Sun 01:57:20 PM -33.9970 -70.4670 116° Southeast 449 517 21,800 2,763 Climbing FlightAware ADS-B
Sun 01:57:56 PM -34.0350 -70.3380 110° East 466 536 23,900 2,354 Climbing FlightAware ADS-B
Sun 01:58:39 PM -34.0580 -70.2560 109° East 481 554 24,900 1,725 Climbing FlightAware ADS-B
Sun 01:59:16 PM -34.0940 -70.1300 109° East 509 586 26,200 987 Climbing FlightAware ADS-B
Sun 01:59:58 PM -34.1220 -70.0340 109° East 509 586 26,200  Level FlightAware ADS-B
Sun 02:00:34 PM -34.1450 -69.9520 109° East 509 586 26,200  Level FlightAware ADS-B
Sun 02:01:11 PM -34.1690 -69.8670 109° East 509 586 26,200  Level FlightAware ADS-B
Sun 02:01:48 PM -34.1930 -69.7820 109° East 509 586 26,200  Level FlightAware ADS-B
Sun 02:02:24 PM -34.2170 -69.7000 110° East 509 586 26,200  Level FlightAware ADS-B
Sun 02:03:00 PM -34.2400 -69.6180 109° East 509 586 26,200 223 Level FlightAware ADS-B
Sun 02:05:00 PM -34.2672 -69.2444 95° East  Level Estimated
Sun 02:06:00 PM -34.2804 -69.0575 95° East  Level Estimated
Sun 02:07:00 PM -34.2933 -68.8705 95° East  Level Estimated
Sun 02:08:00 PM -34.3059 -68.6835 95° East  Level Estimated
Sun 02:09:00 PM -34.3183 -68.4964 95° East  Level Estimated
Sun 02:10:00 PM -34.3303 -68.3093 95° East  Level Estimated
Sun 02:11:00 PM -34.3421 -68.1221 94° East  Level Estimated
Sun 02:12:00 PM -34.3535 -67.9349 94° East  Level Estimated
Sun 02:13:00 PM -34.3647 -67.7476 94° East  Level Estimated
Sun 02:14:00 PM -34.3756 -67.5602 94° East  Level Estimated
Sun 02:15:00 PM -34.3863 -67.3728 94° East  Level Estimated
Sun 02:16:00 PM -34.3966 -67.1854 94° East  Level Estimated
Sun 02:17:00 PM -34.4067 -66.9979 94° East  Level Estimated
Sun 02:18:00 PM -34.4164 -66.8104 94° East  Level Estimated
Sun 02:19:00 PM -34.4259 -66.6228 94° East  Level Estimated
Sun 02:20:00 PM -34.4351 -66.4352 93° East  Level Estimated
Sun 02:21:00 PM -34.4440 -66.2476 93° East  Level Estimated
Sun 02:22:00 PM -34.4526 -66.0599 93° East  Level Estimated
Sun 02:23:00 PM -34.4610 -65.8722 93° East  Level Estimated
Sun 02:24:00 PM -34.4690 -65.6844 93° East  Level Estimated
Sun 02:25:00 PM -34.4768 -65.4966 93° East  Level Estimated
Sun 02:26:00 PM -34.4842 -65.3088 93° East  Level Estimated
Sun 02:27:00 PM -34.4914 -65.1209 93° East  Level Estimated
Sun 02:28:00 PM -34.4983 -64.9330 93° East  Level Estimated
Sun 02:29:00 PM -34.5049 -64.7451 92° East  Level Estimated
Sun 02:30:00 PM -34.5113 -64.5572 92° East  Level Estimated
Sun 02:31:00 PM -34.5173 -64.3692 92° East  Level Estimated
Sun 02:32:00 PM -34.5230 -64.1812 92° East  Level Estimated
Sun 02:33:00 PM -34.5285 -63.9931 92° East  Level Estimated
Sun 02:34:00 PM -34.5337 -63.8051 92° East  Level Estimated
Sun 02:35:00 PM -34.5386 -63.6170 92° East  Level Estimated
Sun 02:36:00 PM -34.5431 -63.4289 92° East  Level Estimated
Sun 02:37:00 PM -34.5474 -63.2408 92° East  Level Estimated
Sun 02:38:00 PM -34.5515 -63.0526 92° East  Level Estimated
Sun 02:39:00 PM -34.5552 -62.8645 91° East  Level Estimated
Sun 02:40:00 PM -34.5586 -62.6763 91° East  Level Estimated
Sun 02:41:00 PM -34.5618 -62.4881 91° East  Level Estimated
Sun 02:42:00 PM -34.5646 -62.2999 91° East  Level Estimated
Sun 02:43:00 PM -34.5672 -62.1117 91° East  Level Estimated
Sun 02:44:00 PM -34.5695 -61.9235 91° East  Level Estimated
Sun 02:45:00 PM -34.5715 -61.7352 91° East  Level Estimated
Sun 02:46:00 PM -34.5732 -61.5470 91° East  Level Estimated
Sun 02:47:00 PM -34.5746 -61.3587 91° East  Level Estimated
Sun 02:48:00 PM -34.5757 -61.1704 90° East  Level Estimated
Sun 02:49:00 PM -34.5766 -60.9822 90° East  Level Estimated
Sun 02:50:00 PM -34.5771 -60.7939 90° East  Level Estimated
Sun 02:50:45 PM -35.0040 -60.9400 90° East 523 602 37,000  Level FlightAware ADS-B
Sun 02:51:00 PM -34.5774 -60.6057 90° East  Level Estimated
Sun 02:51:18 PM -35.0060 -60.8320 91° East 522 601 37,000  Level FlightAware ADS-B
Sun 02:51:58 PM -35.0060 -60.7320 90° East 522 601 37,000  Level FlightAware ADS-B
Sun 02:52:34 PM -35.0060 -60.6420 90° East 522 601 37,000  Level FlightAware ADS-B
Sun 02:53:11 PM -35.0060 -60.5490 90° East 522 601 37,000  Level FlightAware ADS-B
Sun 02:53:48 PM -35.0060 -60.4560 90° East 522 601 37,000 -3,833 Level FlightAware ADS-B
Sun 02:54:23 PM -35.0180 -60.2770 95° East 540 621 32,400 -5,324 Descending FlightAware ADS-B
Sun 02:54:59 PM -35.0180 -60.1640 90° East 533 613 30,700 -2,914 Descending FlightAware ADS-B
Sun 02:55:33 PM -35.0200 -60.0620 91° East 523 602 29,000 -2,609 Descending FlightAware ADS-B
Sun 02:56:08 PM -35.0220 -59.9620 91° East 505 581 27,700 -1,690 Descending FlightAware ADS-B
Sun 02:56:44 PM -35.0230 -59.8650 91° East 471 542 27,000 -1,588 Descending FlightAware ADS-B
Sun 02:57:16 PM -35.0240 -59.7800 91° East 451 519 25,900 -2,032 Descending FlightAware ADS-B
Sun 02:57:46 PM -35.0250 -59.7060 91° East 438 504 24,900 -2,351 Descending FlightAware ADS-B
Sun 02:58:30 PM -35.0270 -59.5980 91° East 431 496 23,000 -2,338 Descending FlightAware ADS-B
Sun 02:59:03 PM -35.0300 -59.5200 93° East 423 487 21,900 -1,886 Descending FlightAware ADS-B
Sun 02:59:40 PM -35.0330 -59.4310 92° East 408 470 20,800 -1,859 Descending FlightAware ADS-B
Sun 03:00:14 PM -35.0360 -59.3550 93° East 398 458 19,700 -1,727 Descending FlightAware ADS-B
Sun 03:00:46 PM -35.0390 -59.2850 93° East 385 443 18,900 -1,565 Descending FlightAware ADS-B
Sun 03:01:23 PM -35.0430 -59.2080 94° East 371 427 17,900 -1,833 Descending FlightAware ADS-B
Sun 03:01:58 PM -35.0470 -59.1340 94° East 363 418 16,700 -2,197 Descending FlightAware ADS-B
Sun 03:02:34 PM -35.0500 -59.0600 93° East 364 419 15,300 -2,545 Descending FlightAware ADS-B
Sun 03:03:04 PM -35.0440 -58.9990 83° East 367 422 13,900 -3,143 Descending FlightAware ADS-B
Sun 03:03:16 PM -35.0320 -58.9770 56° Northeast 370 426 13,100 -3,360 Descending FlightAware ADS-B
Sun 03:03:29 PM -35.0170 -58.9610 41° Northeast 367 422 12,500 -1,320 Descending FlightAware ADS-B
Sun 03:04:06 PM -34.9660 -58.9200 33° Northeast 332 382 12,000 -1,521 Descending FlightAware ADS-B
Sun 03:04:40 PM -34.9220 -58.8850 33° Northeast 329 379 10,700 -1,676 Descending FlightAware ADS-B
Sun 03:05:14 PM -34.8800 -58.8500 34° Northeast 309 356 10,100 -778 Descending FlightAware ADS-B
Sun 03:05:34 PM -34.8580 -58.8330 32° Northeast 290 334 10,000 -833 Descending FlightAware ADS-B
Sun 03:05:50 PM -34.8400 -58.8180 34° Northeast 285 328 9,600 -1,167 Descending FlightAware ADS-B
Sun 03:06:10 PM -34.8180 -58.8020 31° Northeast 272 313 9,300 -857 Descending FlightAware ADS-B
Sun 03:06:32 PM -34.7930 -58.7870 26° Northeast 262 302 9,000 -882 Descending FlightAware ADS-B
Sun 03:06:44 PM -34.7810 -58.7800 26° Northeast 258 297 8,800 -1,941 Descending FlightAware ADS-B
Sun 03:07:06 PM -34.7560 -58.7650 26° Northeast 269 310 7,900 -1,800 Descending FlightAware ADS-B
Sun 03:07:24 PM -34.7360 -58.7530 26° Northeast 264 304 7,600 -1,167 Descending FlightAware ADS-B
Sun 03:07:42 PM -34.7170 -58.7410 27° Northeast 261 300 7,200 -1,421 Descending FlightAware ADS-B
Sun 03:08:02 PM -34.6950 -58.7280 26° Northeast 261 300 6,700 -1,500 Descending FlightAware ADS-B
Sun 03:08:18 PM -34.6780 -58.7160 30° Northeast 263 303 6,300 -1,500 Descending FlightAware ADS-B
Sun 03:08:38 PM -34.6610 -58.6960 44° Northeast 264 304 5,800 -1,500 Descending FlightAware ADS-B
Sun 03:08:50 PM -34.6510 -58.6840 45° Northeast 263 303 5,500 -1,500 Descending FlightAware ADS-B
Sun 03:09:14 PM -34.6310 -58.6580 47° Northeast 262 302 4,900 -1,636 Descending FlightAware ADS-B
Sun 03:09:34 PM -34.6140 -58.6360 47° Northeast 263 303 4,300 -1,667 Descending FlightAware ADS-B
Sun 03:09:50 PM -34.6010 -58.6190 47° Northeast 261 300 3,900 -1,500 Descending FlightAware ADS-B
Sun 03:10:10 PM -34.5830 -58.5980 44° Northeast 258 297 3,400 -1,050 Descending FlightAware ADS-B
Sun 03:10:30 PM -34.5670 -58.5790 44° Northeast 246 283 3,200 -600 Descending FlightAware ADS-B
Sun 03:10:50 PM -34.5500 -58.5610 41° Northeast 231 266 3,000 -615 Descending FlightAware ADS-B
Sun 03:11:09 PM -34.5380 -58.5470 44° Northeast 200 230 2,800 -545 Descending FlightAware ADS-B
Sun 03:11:34 PM -34.5200 -58.5290 39° Northeast 169 194 2,600 -414 Descending FlightAware ADS-B
Sun 03:11:38 PM -34.5190 -58.5260 68° East 165 190 2,600 -1,000 Level FlightAware ADS-B
Sun 03:11:46 PM -34.5160 -58.5200 59° Northeast 162 186 2,400 -1,125 Descending FlightAware ADS-B
Sun 03:11:54 PM -34.5150 -58.5130 80° East 161 185 2,300 -1,167 Descending FlightAware ADS-B
Sun 03:12:22 PM -34.5200 -58.4880 104° East 163 188 1,700 -1,304 Descending FlightAware ADS-B
Sun 03:12:40 PM -34.5270 -58.4740 121° Southeast 155 178 1,300 -1,429 Descending FlightAware ADS-B
Sun 03:13:04 PM -34.5360 -58.4570 123° Southeast 153 176 700 -1,459 Descending FlightAware ADS-B
Sun 03:13:17 PM -34.5410 -58.4480 124° Southeast 152 175 400 -556 Descending FlightAware ADS-B
Sun 03:13:58 PM -34.5550 -58.4220 123° Southeast 145 167 200 -293 Descending FlightAware ADS-B
Sun 03:16:00 PM -34.5500 -58.4167 90° East  Level FlightAware Approximate

Login

Don't have an account? Register now (free) for customized features, flight alerts, and more!